Time;durP1;ratioP1;P1;durP2;ratioP2;P2;SDS_P1;SDS_P2;PMS_P1;PMS_P2;Temp;Humidity;BMP_temperature;BMP_pressure;BME280_temperature;BME280_humidity;BME280_pressure;Samples;Min_cycle;Max_cycle;Signal;HPM_P1;HPM_P2
2021/09/21 00:01:03;;;;;;;11.05;7.60;;;10.90;99.90;;;;;;5050261;28;20130;-74
2021/09/21 00:03:29;;;;;;;8.82;7.88;;;11.00;99.90;;;;;;5051684;28;20024;-75
2021/09/21 00:05:54;;;;;;;8.27;7.13;;;10.90;99.90;;;;;;5051579;28;20031;-76
2021/09/21 00:08:20;;;;;;;8.23;7.43;;;10.90;99.90;;;;;;5050383;28;20025;-75
2021/09/21 00:10:45;;;;;;;9.77;7.40;;;10.90;99.90;;;;;;5051303;28;20021;-74
2021/09/21 00:13:11;;;;;;;9.27;7.20;;;10.90;99.90;;;;;;5051632;28;20381;-74
2021/09/21 00:15:37;;;;;;;9.65;7.70;;;10.90;99.90;;;;;;5051451;28;20071;-74
2021/09/21 00:18:02;;;;;;;7.88;7.07;;;10.90;99.90;;;;;;5051634;28;20021;-74
2021/09/21 00:20:28;;;;;;;7.78;7.07;;;10.90;99.90;;;;;;5070424;28;20039;-74
2021/09/21 00:22:53;;;;;;;8.68;7.53;;;10.90;99.90;;;;;;5071396;28;20100;-75
2021/09/21 00:25:19;;;;;;;7.72;6.95;;;10.90;99.90;;;;;;5071359;28;20043;-75
2021/09/21 00:27:45;;;;;;;9.65;7.30;;;10.80;99.90;;;;;;5071564;28;20067;-75
2021/09/21 00:30:14;;;;;;;9.23;7.40;;;10.70;99.90;;;;;;5071661;28;20025;-74
2021/09/21 00:32:43;;;;;;;8.55;7.75;;;10.60;99.90;;;;;;5071209;28;20477;-75
2021/09/21 00:35:09;;;;;;;8.27;7.47;;;10.60;99.90;;;;;;5070169;28;20125;-75
2021/09/21 00:37:34;;;;;;;9.05;7.60;;;10.70;99.90;;;;;;5071404;28;20036;-76
2021/09/21 00:40:00;;;;;;;8.43;7.30;;;10.70;99.90;;;;;;5071176;28;20029;-76
2021/09/21 00:42:29;;;;;;;8.07;7.35;;;10.80;99.90;;;;;;5069864;28;20028;-75
2021/09/21 00:44:58;;;;;;;9.80;7.50;;;10.80;99.90;;;;;;5071332;28;20021;-75
2021/09/21 00:47:24;;;;;;;9.13;7.88;;;10.70;99.90;;;;;;5071309;28;20036;-75
2021/09/21 00:49:50;;;;;;;9.52;7.00;;;10.70;99.90;;;;;;5071210;28;20487;-76
2021/09/21 00:52:17;;;;;;;8.48;7.60;;;10.80;99.90;;;;;;5070014;28;20031;-75
2021/09/21 00:54:42;;;;;;;9.52;7.78;;;10.60;99.90;;;;;;5051080;28;20029;-75
2021/09/21 00:57:08;;;;;;;7.55;6.85;;;10.50;99.90;;;;;;5062794;28;20108;-76
2021/09/21 00:59:34;;;;;;;9.50;7.88;;;10.60;99.90;;;;;;5049915;28;20029;-75
2021/09/21 01:01:59;;;;;;;9.10;7.78;;;10.60;99.90;;;;;;5050917;28;20086;-75
2021/09/21 01:04:25;;;;;;;8.45;7.30;;;10.60;99.90;;;;;;5051345;28;20391;-75
2021/09/21 01:06:51;;;;;;;10.40;8.43;;;10.50;99.90;;;;;;5049655;28;20478;-74
2021/09/21 01:09:24;;;;;;;9.75;7.72;;;10.50;99.90;;;;;;5051321;28;20021;-74
2021/09/21 01:11:52;;;;;;;8.93;7.10;;;10.40;99.90;;;;;;5054739;28;20024;-74
2021/09/21 01:14:18;;;;;;;8.85;7.05;;;10.50;99.90;;;;;;5054890;28;20103;-75
2021/09/21 01:16:45;;;;;;;8.55;7.75;;;10.50;99.90;;;;;;5054728;28;20501;-75
2021/09/21 01:19:12;;;;;;;11.07;7.20;;;10.50;99.90;;;;;;5053480;28;20032;-74
2021/09/21 01:21:39;;;;;;;8.18;6.95;;;10.60;99.90;;;;;;5054352;28;20025;-74
2021/09/21 01:24:05;;;;;;;9.07;6.65;;;10.60;99.90;;;;;;5053333;28;20084;-75
2021/09/21 01:26:31;;;;;;;8.20;6.93;;;10.50;99.90;;;;;;5054429;28;20064;-74
2021/09/21 01:28:56;;;;;;;8.52;6.68;;;10.50;99.90;;;;;;5054449;28;20110;-74
2021/09/21 01:31:22;;;;;;;7.07;6.40;;;10.60;99.90;;;;;;5054213;28;20100;-74
2021/09/21 01:33:50;;;;;;;9.82;7.60;;;10.60;99.90;;;;;;5054458;28;20025;-75
2021/09/21 01:36:21;;;;;;;10.75;7.60;;;10.60;99.90;;;;;;5054185;28;20032;-74
2021/09/21 01:38:46;;;;;;;8.07;7.25;;;10.40;99.90;;;;;;5053073;28;20032;-74
2021/09/21 01:41:12;;;;;;;8.43;7.13;;;10.50;99.90;;;;;;5052757;28;20033;-74
2021/09/21 01:43:40;;;;;;;11.45;6.95;;;10.40;99.90;;;;;;5054214;28;20479;-74
2021/09/21 01:46:06;;;;;;;7.47;6.78;;;10.40;99.90;;;;;;5054109;28;21148;-75
2021/09/21 01:48:31;;;;;;;9.50;7.18;;;10.40;99.90;;;;;;5054237;28;20021;-75
2021/09/21 02:01:33;;;;;;;8.18;6.60;;;10.40;99.90;;;;;;5012118;28;20033;-74
2021/09/21 02:03:59;;;;;;;8.48;6.88;;;10.40;99.90;;;;;;5044833;28;20040;-75
2021/09/21 02:06:37;;;;;;;7.90;7.07;;;10.40;99.90;;;;;;5056043;28;20029;-75
2021/09/21 02:09:05;;;;;;;8.25;6.65;;;10.50;99.90;;;;;;5063861;28;20025;-75
2021/09/21 02:11:31;;;;;;;7.22;6.53;;;10.50;99.90;;;;;;5064743;28;20020;-76
2021/09/21 02:13:57;;;;;;;6.85;6.25;;;10.60;99.90;;;;;;5063778;28;20021;-76
2021/09/21 02:16:32;;;;;;;7.45;6.65;;;10.60;99.90;;;;;;5052489;28;20067;-76
2021/09/21 02:18:58;;;;;;;8.07;7.25;;;10.60;99.90;;;;;;5060988;28;20081;-75
2021/09/21 02:21:24;;;;;;;7.43;6.20;;;10.40;99.90;;;;;;5072754;28;20115;-74
2021/09/21 02:23:51;;;;;;;8.07;6.70;;;10.30;99.90;;;;;;5065661;28;20059;-75
2021/09/21 02:26:16;;;;;;;7.13;6.50;;;10.30;99.90;;;;;;5066599;28;20509;-75
2021/09/21 02:28:42;;;;;;;7.25;6.50;;;10.20;99.90;;;;;;5053394;28;20017;-75
2021/09/21 02:31:07;;;;;;;8.13;6.72;;;10.20;99.90;;;;;;5053138;28;20490;-75
2021/09/21 02:33:33;;;;;;;8.75;6.70;;;10.30;99.90;;;;;;5053325;28;20025;-75
2021/09/21 02:35:58;;;;;;;8.10;6.90;;;10.30;99.90;;;;;;5052122;28;20592;-76
2021/09/21 02:38:24;;;;;;;9.73;7.57;;;10.40;99.90;;;;;;5054268;28;20029;-74
2021/09/21 02:40:50;;;;;;;9.10;7.57;;;10.30;99.90;;;;;;5065405;28;20498;-74
2021/09/21 02:43:16;;;;;;;8.98;7.85;;;10.10;99.90;;;;;;5053218;28;20044;-74
2021/09/21 02:45:41;;;;;;;9.50;7.13;;;10.10;99.90;;;;;;5052107;28;20123;-77
2021/09/21 02:48:07;;;;;;;8.43;7.50;;;10.10;99.90;;;;;;5053440;28;20025;-74
2021/09/21 02:50:33;;;;;;;10.35;8.07;;;10.20;99.90;;;;;;5066403;28;20016;-75
2021/09/21 02:52:59;;;;;;;8.88;7.50;;;10.10;99.90;;;;;;5072547;28;20027;-74
2021/09/21 02:55:24;;;;;;;10.60;7.43;;;10.30;99.90;;;;;;5068305;28;20111;-75
2021/09/21 02:57:50;;;;;;;8.13;7.32;;;10.20;99.90;;;;;;5071082;28;20062;-75
2021/09/21 03:00:20;;;;;;;8.27;7.47;;;10.20;99.90;;;;;;5059550;28;20021;-75
2021/09/21 03:02:46;;;;;;;7.85;6.97;;;10.30;99.90;;;;;;5052598;28;20013;-75
2021/09/21 03:05:21;;;;;;;8.45;7.55;;;10.30;99.90;;;;;;5052779;28;20025;-75
2021/09/21 03:07:58;;;;;;;7.93;7.07;;;10.30;99.90;;;;;;5052611;28;20025;-75
2021/09/21 03:18:01;;;;;;;7.85;6.80;;;10.00;99.90;;;;;;5052780;28;20082;-75
2021/09/21 03:20:27;;;;;;;10.10;7.15;;;10.00;99.90;;;;;;5052234;28;20028;-75
2021/09/21 03:22:53;;;;;;;9.55;6.90;;;10.00;99.90;;;;;;5050809;28;20024;-75
2021/09/21 03:25:19;;;;;;;8.40;7.20;;;10.00;99.90;;;;;;5053794;28;20103;-77
2021/09/21 03:27:45;;;;;;;9.65;7.47;;;10.00;99.90;;;;;;5059751;28;20035;-75
2021/09/21 03:30:12;;;;;;;7.55;6.68;;;10.00;99.90;;;;;;5064349;28;20513;-74
2021/09/21 03:32:38;;;;;;;7.63;6.93;;;10.10;99.90;;;;;;5050143;28;20021;-74
2021/09/21 03:35:05;;;;;;;8.57;7.50;;;10.20;99.90;;;;;;5059273;28;20028;-73
2021/09/21 03:37:31;;;;;;;7.70;6.90;;;10.20;99.90;;;;;;5070789;28;20094;-75
2021/09/21 03:39:57;;;;;;;9.88;7.40;;;10.10;99.90;;;;;;5051522;28;20475;-75
2021/09/21 03:42:22;;;;;;;8.10;6.68;;;10.20;99.90;;;;;;5050514;28;20025;-75
2021/09/21 03:44:48;;;;;;;8.70;7.15;;;10.00;99.90;;;;;;5050729;28;20029;-76
2021/09/21 03:47:13;;;;;;;8.60;7.20;;;9.90;99.90;;;;;;5050633;28;20028;-76
2021/09/21 03:49:39;;;;;;;8.63;6.75;;;9.90;99.90;;;;;;5058056;28;20024;-76
2021/09/21 03:52:05;;;;;;;8.75;7.10;;;9.90;99.90;;;;;;5071633;28;20055;-75
2021/09/21 03:54:30;;;;;;;9.13;6.68;;;9.90;99.90;;;;;;5071753;28;20028;-75
2021/09/21 03:56:56;;;;;;;8.20;7.20;;;9.80;99.90;;;;;;5071630;28;20432;-74
2021/09/21 03:59:22;;;;;;;8.50;7.25;;;9.80;99.90;;;;;;5064321;28;20021;-75
2021/09/21 04:01:48;;;;;;;10.70;7.47;;;9.80;99.90;;;;;;5051533;28;20513;-74
2021/09/21 04:04:14;;;;;;;10.88;7.32;;;9.80;99.90;;;;;;5050612;28;20033;-75
2021/09/21 04:06:40;;;;;;;9.48;7.50;;;9.80;99.90;;;;;;5051669;28;20028;-75
2021/09/21 04:09:05;;;;;;;8.32;6.88;;;9.80;99.90;;;;;;5050627;28;20087;-75
2021/09/21 04:11:31;;;;;;;7.95;7.15;;;9.70;99.90;;;;;;5051716;28;20414;-74
2021/09/21 04:13:57;;;;;;;9.68;7.30;;;9.70;99.90;;;;;;5050319;28;20044;-74
2021/09/21 04:16:22;;;;;;;9.55;7.97;;;9.70;99.90;;;;;;5051997;28;20039;-74
2021/09/21 04:18:48;;;;;;;7.80;6.82;;;9.80;99.90;;;;;;5051347;28;20029;-75
2021/09/21 04:21:14;;;;;;;13.00;7.68;;;9.90;99.90;;;;;;5051576;28;20039;-75
2021/09/21 04:23:40;;;;;;;8.65;7.32;;;9.90;99.90;;;;;;5065091;28;20039;-75
2021/09/21 04:26:09;;;;;;;7.63;6.93;;;10.10;99.90;;;;;;5050426;28;20025;-76
2021/09/21 04:28:36;;;;;;;9.00;7.88;;;10.10;99.90;;;;;;5065116;28;20584;-75
2021/09/21 04:31:10;;;;;;;9.45;8.15;;;10.10;99.90;;;;;;5064027;28;20482;-77
2021/09/21 04:33:41;;;;;;;10.73;8.07;;;10.20;99.90;;;;;;5057138;28;20070;-76
2021/09/21 04:36:09;;;;;;;10.30;8.23;;;10.10;99.90;;;;;;5055962;28;20029;-76
2021/09/21 04:38:36;;;;;;;11.57;8.93;;;10.10;99.90;;;;;;5051562;28;20112;-76
2021/09/21 04:41:03;;;;;;;9.60;8.20;;;10.00;99.90;;;;;;5063742;28;20488;-75
2021/09/21 04:43:30;;;;;;;9.20;8.30;;;10.20;99.90;;;;;;5058046;28;20081;-74
2021/09/21 04:45:55;;;;;;;11.00;8.88;;;10.20;99.90;;;;;;5059646;28;20036;-75
2021/09/21 04:48:21;;;;;;;11.35;8.75;;;10.10;99.90;;;;;;5061968;28;20085;-74
2021/09/21 04:50:46;;;;;;;11.82;9.15;;;10.10;99.90;;;;;;5071695;28;20017;-74
2021/09/21 04:53:12;;;;;;;10.85;8.77;;;10.00;99.90;;;;;;5064146;28;20036;-74
2021/09/21 04:55:37;;;;;;;10.05;9.05;;;10.10;99.90;;;;;;5058969;28;20574;-73
2021/09/21 04:58:03;;;;;;;9.80;7.95;;;10.10;99.90;;;;;;5063718;28;20024;-77
2021/09/21 05:00:28;;;;;;;12.93;8.98;;;10.20;99.90;;;;;;5060355;28;20036;-76
2021/09/21 05:02:54;;;;;;;9.85;8.13;;;10.10;99.90;;;;;;5063196;28;20025;-75
2021/09/21 05:05:22;;;;;;;11.98;9.05;;;10.00;99.90;;;;;;5061660;28;20441;-74
2021/09/21 05:07:47;;;;;;;10.05;9.00;;;10.10;99.90;;;;;;5066281;28;20025;-73
2021/09/21 05:10:13;;;;;;;9.77;8.60;;;10.20;99.90;;;;;;5068439;28;20074;-75
2021/09/21 05:12:39;;;;;;;9.90;8.90;;;10.30;99.90;;;;;;5062080;28;20035;-75
2021/09/21 05:15:05;;;;;;;10.57;9.18;;;10.30;99.90;;;;;;5061327;28;20025;-74
2021/09/21 05:17:30;;;;;;;9.68;8.77;;;10.30;99.90;;;;;;5075007;28;20368;-75
2021/09/21 05:19:56;;;;;;;11.23;9.07;;;10.30;99.90;;;;;;5060042;28;20029;-75
2021/09/21 05:22:22;;;;;;;12.73;9.40;;;10.30;99.90;;;;;;5066351;28;20025;-75
2021/09/21 05:24:48;;;;;;;11.82;8.98;;;10.10;99.90;;;;;;5056545;28;20078;-75
2021/09/21 05:27:13;;;;;;;10.30;9.27;;;10.40;99.90;;;;;;5066324;28;20033;-75
2021/09/21 05:29:39;;;;;;;13.93;9.63;;;10.40;99.90;;;;;;5068360;28;20020;-75
2021/09/21 05:32:05;;;;;;;11.30;9.23;;;10.40;99.90;;;;;;5061362;28;20020;-75
2021/09/21 05:34:30;;;;;;;11.07;9.40;;;10.40;99.90;;;;;;5058483;28;20102;-74
2021/09/21 05:36:56;;;;;;;10.43;9.23;;;10.40;99.90;;;;;;5061319;28;20536;-75
2021/09/21 05:39:21;;;;;;;10.30;8.88;;;10.40;99.90;;;;;;5060955;28;20029;-75
2021/09/21 05:41:47;;;;;;;10.88;8.75;;;10.50;99.90;;;;;;5065126;28;20029;-75
2021/09/21 05:44:12;;;;;;;14.38;9.85;;;10.50;99.90;;;;;;5066519;28;20060;-76
2021/09/21 05:46:38;;;;;;;10.52;9.20;;;10.50;99.90;;;;;;5053048;28;20025;-76
2021/09/21 05:49:03;;;;;;;11.95;9.38;;;10.40;99.90;;;;;;5056635;28;20063;-76
2021/09/21 05:51:30;;;;;;;9.93;8.93;;;10.40;99.90;;;;;;5065189;28;20383;-76
2021/09/21 05:53:56;;;;;;;14.73;9.07;;;10.50;99.90;;;;;;5067558;28;20040;-76
2021/09/21 05:56:22;;;;;;;10.52;9.27;;;10.50;99.90;;;;;;5061613;28;20028;-75
2021/09/21 05:58:47;;;;;;;12.23;9.35;;;10.40;99.90;;;;;;5060504;28;20033;-75
2021/09/21 06:01:13;;;;;;;13.13;9.80;;;10.40;99.90;;;;;;5064319;28;20467;-75
2021/09/21 06:03:39;;;;;;;10.35;9.25;;;10.50;99.90;;;;;;5054124;28;20025;-76
2021/09/21 06:06:04;;;;;;;9.85;8.85;;;10.40;99.90;;;;;;5066092;28;20382;-76
2021/09/21 06:08:30;;;;;;;11.02;9.93;;;10.40;99.90;;;;;;5053683;28;20025;-76
2021/09/21 06:10:55;;;;;;;11.40;10.15;;;10.20;99.90;;;;;;5066234;28;20028;-74
2021/09/21 06:13:21;;;;;;;12.02;9.75;;;10.10;99.90;;;;;;5067876;28;20475;-74
2021/09/21 06:15:47;;;;;;;11.00;9.80;;;10.20;99.90;;;;;;5066824;28;20483;-75
2021/09/21 06:18:17;;;;;;;10.65;9.55;;;10.20;99.90;;;;;;5054298;28;20024;-75
2021/09/21 06:20:43;;;;;;;11.65;9.15;;;10.10;99.90;;;;;;5065494;28;20082;-75
2021/09/21 06:23:09;;;;;;;10.27;9.25;;;10.10;99.90;;;;;;5069097;28;20364;-74
2021/09/21 06:25:35;;;;;;;11.68;9.13;;;10.00;99.90;;;;;;5060559;28;20498;-75
2021/09/21 06:28:01;;;;;;;12.82;9.85;;;10.10;99.90;;;;;;5058725;28;20483;-75
2021/09/21 06:30:28;;;;;;;11.15;9.07;;;10.40;99.90;;;;;;5065490;28;20032;-75
2021/09/21 06:32:53;;;;;;;9.40;8.50;;;10.60;99.90;;;;;;5066512;28;20073;-75
2021/09/21 06:35:19;;;;;;;12.95;10.10;;;10.70;99.90;;;;;;5061511;28;20028;-75
2021/09/21 06:37:45;;;;;;;9.57;8.57;;;10.80;99.90;;;;;;5071874;28;20457;-75
2021/09/21 06:40:11;;;;;;;12.15;10.07;;;10.90;99.90;;;;;;5061507;28;20025;-75
2021/09/21 06:42:40;;;;;;;11.20;9.63;;;10.90;99.90;;;;;;5058369;28;20029;-74
2021/09/21 06:45:07;;;;;;;10.02;8.88;;;10.90;99.90;;;;;;5065982;28;20479;-75
2021/09/21 06:47:32;;;;;;;11.40;9.70;;;11.10;99.90;;;;;;5070659;28;20111;-74
2021/09/21 06:49:58;;;;;;;10.93;9.10;;;11.20;99.90;;;;;;5072641;28;20108;-75
2021/09/21 06:52:24;;;;;;;9.88;8.88;;;11.20;99.90;;;;;;5070525;28;20179;-75
2021/09/21 06:54:50;;;;;;;10.68;9.68;;;11.20;99.90;;;;;;5061948;28;20028;-75
2021/09/21 06:57:16;;;;;;;13.38;9.55;;;11.20;99.90;;;;;;5070616;28;20058;-75
2021/09/21 06:59:42;;;;;;;12.63;9.75;;;11.30;99.90;;;;;;5062473;28;20021;-74
2021/09/21 07:02:08;;;;;;;11.57;10.32;;;11.20;99.90;;;;;;5051907;28;20509;-75
2021/09/21 07:04:33;;;;;;;15.55;10.25;;;11.30;99.90;;;;;;5061990;28;20033;-75
2021/09/21 07:06:59;;;;;;;12.07;10.10;;;11.20;99.90;;;;;;5059352;28;20036;-74
2021/09/21 07:09:24;;;;;;;10.35;9.10;;;11.30;99.90;;;;;;5062169;28;20017;-73
2021/09/21 07:11:50;;;;;;;10.82;9.73;;;11.40;99.90;;;;;;5054810;28;20070;-75
2021/09/21 07:14:17;;;;;;;12.82;10.80;;;11.50;99.90;;;;;;5063742;28;20021;-74
2021/09/21 07:16:43;;;;;;;12.50;9.70;;;11.50;99.90;;;;;;5052801;28;20480;-75
2021/09/21 07:19:09;;;;;;;13.27;11.13;;;11.60;99.90;;;;;;5060273;28;20051;-75
2021/09/21 07:21:35;;;;;;;10.80;9.70;;;11.50;99.90;;;;;;5058990;28;20095;-75
2021/09/21 07:24:01;;;;;;;10.63;9.52;;;11.60;99.90;;;;;;5063579;28;20060;-75
2021/09/21 07:26:26;;;;;;;9.95;8.95;;;11.70;99.90;;;;;;5064219;28;20032;-75
2021/09/21 07:28:52;;;;;;;12.27;9.40;;;11.70;99.90;;;;;;5060222;28;20070;-74
2021/09/21 07:31:17;;;;;;;10.93;9.70;;;11.80;99.90;;;;;;5057413;28;20530;-74
2021/09/21 07:33:44;;;;;;;11.75;8.43;;;11.70;99.90;;;;;;5063297;28;20513;-75
2021/09/21 07:36:10;;;;;;;10.25;9.02;;;11.80;99.90;;;;;;5065709;28;20513;-74
2021/09/21 07:38:36;;;;;;;10.38;9.27;;;11.90;99.90;;;;;;5061395;28;20044;-74
2021/09/21 07:41:01;;;;;;;13.75;8.90;;;11.80;99.90;;;;;;5056045;28;20021;-75
2021/09/21 07:43:27;;;;;;;9.45;8.43;;;11.90;99.90;;;;;;5060178;28;20028;-75
2021/09/21 07:45:53;;;;;;;10.43;8.90;;;12.00;99.90;;;;;;5057456;28;20095;-75
2021/09/21 07:48:20;;;;;;;10.35;8.95;;;12.10;99.90;;;;;;5061611;28;20414;-75
2021/09/21 07:50:51;;;;;;;11.05;9.57;;;12.10;99.90;;;;;;5067984;28;20021;-75
2021/09/21 07:53:17;;;;;;;11.77;9.05;;;11.90;99.90;;;;;;5061193;28;20096;-75
2021/09/21 07:55:43;;;;;;;13.98;9.00;;;11.90;99.90;;;;;;5065783;28;20137;-75
2021/09/21 07:58:09;;;;;;;9.82;8.82;;;12.00;99.90;;;;;;5061348;28;20027;-77
2021/09/21 08:00:35;;;;;;;11.35;8.82;;;12.10;99.90;;;;;;5058796;28;20029;-75
2021/09/21 08:03:00;;;;;;;10.15;9.02;;;12.20;99.90;;;;;;5062635;28;20021;-74
2021/09/21 08:05:26;;;;;;;13.32;9.50;;;12.30;99.90;;;;;;5053033;28;20032;-75
2021/09/21 08:07:52;;;;;;;11.65;8.80;;;12.40;99.90;;;;;;5061338;28;20032;-75
2021/09/21 08:10:17;;;;;;;11.13;9.32;;;12.50;99.90;;;;;;5065241;28;20013;-74
2021/09/21 08:12:44;;;;;;;10.25;8.98;;;12.40;99.90;;;;;;5060753;28;20051;-75
2021/09/21 08:15:10;;;;;;;9.65;8.75;;;12.20;99.90;;;;;;5057259;28;20433;-75
2021/09/21 08:17:36;;;;;;;12.93;9.30;;;12.20;99.90;;;;;;5071814;28;20029;-75
2021/09/21 08:20:04;;;;;;;11.55;9.43;;;12.30;99.90;;;;;;5055230;28;20044;-75
2021/09/21 08:22:29;;;;;;;11.85;9.18;;;12.30;99.90;;;;;;5051408;28;20024;-75
2021/09/21 08:24:56;;;;;;;9.35;8.40;;;12.50;99.90;;;;;;5054330;28;20033;-74
2021/09/21 08:27:23;;;;;;;10.25;8.85;;;12.50;99.90;;;;;;5062225;28;20018;-74
2021/09/21 08:29:48;;;;;;;9.90;8.73;;;12.60;99.90;;;;;;5063828;28;20053;-75
2021/09/21 08:32:14;;;;;;;10.00;9.00;;;12.80;99.90;;;;;;5061118;28;20518;-75
2021/09/21 08:34:40;;;;;;;11.23;9.00;;;12.90;99.90;;;;;;5054191;28;20064;-74
2021/09/21 08:37:05;;;;;;;11.02;8.45;;;12.90;99.90;;;;;;5060873;28;20060;-74
2021/09/21 08:39:31;;;;;;;9.23;8.23;;;13.10;99.90;;;;;;5055393;28;20025;-74
2021/09/21 08:41:57;;;;;;;10.85;8.88;;;13.20;99.90;;;;;;5051336;28;20029;-75
2021/09/21 08:44:22;;;;;;;11.60;7.82;;;13.30;99.90;;;;;;5063962;28;20029;-75
2021/09/21 08:46:49;;;;;;;9.15;8.23;;;13.30;99.90;;;;;;5060674;28;20071;-75
2021/09/21 08:49:15;;;;;;;10.07;8.57;;;13.40;99.90;;;;;;5055694;28;20079;-75
2021/09/21 08:51:41;;;;;;;9.60;8.57;;;13.20;99.90;;;;;;5061386;28;20107;-75
2021/09/21 08:54:07;;;;;;;9.20;8.25;;;13.50;99.90;;;;;;5055603;28;20465;-77
2021/09/21 08:56:33;;;;;;;11.10;8.30;;;13.60;99.90;;;;;;5051362;28;20025;-74
2021/09/21 08:59:05;;;;;;;9.23;8.05;;;13.50;99.90;;;;;;5064994;28;20063;-75
2021/09/21 09:01:45;;;;;;;9.05;7.80;;;13.60;99.90;;;;;;5061618;28;20035;-75
2021/09/21 09:04:13;;;;;;;8.57;7.75;;;13.90;99.90;;;;;;5065706;28;20040;-75
2021/09/21 09:06:45;;;;;;;10.00;8.35;;;14.00;99.90;;;;;;5063875;28;20040;-75
2021/09/21 09:09:16;;;;;;;9.23;7.72;;;14.00;99.90;;;;;;5057948;28;20024;-75
2021/09/21 09:11:46;;;;;;;8.00;7.05;;;13.90;99.90;;;;;;5056232;28;20025;-75
2021/09/21 09:14:22;;;;;;;8.30;7.32;;;14.10;99.90;;;;;;5062232;28;20060;-72
2021/09/21 09:17:02;;;;;;;8.93;7.72;;;14.10;99.90;;;;;;5064826;28;20041;-75
2021/09/21 09:19:30;;;;;;;11.43;7.63;;;13.90;99.90;;;;;;5061994;28;20021;-75
2021/09/21 09:22:04;;;;;;;7.80;7.10;;;14.00;99.90;;;;;;5057554;28;20492;-75
2021/09/21 09:24:29;;;;;;;7.60;6.63;;;14.20;99.90;;;;;;5059081;28;20029;-75
2021/09/21 09:26:55;;;;;;;8.23;6.93;;;14.30;99.90;;;;;;5055210;28;20363;-75
2021/09/21 09:29:21;;;;;;;6.65;5.65;;;14.10;99.90;;;;;;5059109;28;20048;-75
2021/09/21 09:31:47;;;;;;;7.05;5.85;;;14.20;99.90;;;;;;5065455;28;20025;-75
2021/09/21 09:34:27;;;;;;;7.72;7.03;;;14.30;99.90;;;;;;5066925;28;20027;-75
2021/09/21 09:36:59;;;;;;;10.25;7.20;;;14.20;99.90;;;;;;5060867;28;20116;-75
2021/09/21 09:39:29;;;;;;;7.50;6.57;;;14.10;99.90;;;;;;5061114;28;20032;-75
2021/09/21 09:41:56;;;;;;;7.43;6.63;;;14.30;99.90;;;;;;5065317;28;20035;-75
2021/09/21 09:44:25;;;;;;;6.95;6.35;;;14.20;99.90;;;;;;5054591;28;20533;-75
2021/09/21 09:47:00;;;;;;;7.40;6.65;;;14.50;99.90;;;;;;5064010;28;20115;-74
2021/09/21 09:49:34;;;;;;;7.13;6.43;;;14.40;99.90;;;;;;5055481;28;20028;-75
2021/09/21 09:52:33;;;;;;;7.88;6.95;;;14.80;99.90;;;;;;5064951;28;20025;-75
2021/09/21 09:54:58;;;;;;;6.90;6.22;;;14.90;99.90;;;;;;5041103;28;20045;-75
2021/09/21 09:57:24;;;;;;;6.53;5.93;;;14.80;99.90;;;;;;5070886;28;20102;-75
2021/09/21 09:59:50;;;;;;;7.35;6.22;;;14.80;99.90;;;;;;5074145;28;20030;-75
2021/09/21 10:02:16;;;;;;;6.97;6.00;;;14.80;99.90;;;;;;5060605;28;20520;-75
2021/09/21 10:04:41;;;;;;;7.72;6.32;;;15.00;99.90;;;;;;5064373;28;20036;-74
2021/09/21 10:07:08;;;;;;;7.20;6.30;;;15.00;99.90;;;;;;5053922;28;20056;-75
2021/09/21 10:09:34;;;;;;;9.68;6.47;;;14.90;99.90;;;;;;5053941;28;20044;-75
2021/09/21 10:12:00;;;;;;;7.20;5.95;;;14.30;99.90;;;;;;5053640;28;20099;-74
2021/09/21 10:14:27;;;;;;;7.32;6.10;;;14.70;99.90;;;;;;5063389;28;20054;-75
2021/09/21 10:17:03;;;;;;;6.18;5.55;;;15.00;99.90;;;;;;5060276;28;20391;-75
2021/09/21 10:19:31;;;;;;;6.20;5.65;;;15.20;99.90;;;;;;5063141;28;20029;-75
2021/09/21 10:21:58;;;;;;;6.90;5.53;;;15.30;99.90;;;;;;5058147;28;20085;-75
2021/09/21 10:24:42;;;;;;;6.57;5.90;;;15.10;99.90;;;;;;5062422;28;20029;-75
2021/09/21 10:27:23;;;;;;;6.35;5.70;;;15.20;99.90;;;;;;5060959;28;20066;-75
2021/09/21 10:30:01;;;;;;;7.15;5.20;;;15.10;99.90;;;;;;5056341;28;20029;-75
2021/09/21 10:32:27;;;;;;;6.45;5.72;;;15.00;99.90;;;;;;5053244;28;20076;-74
2021/09/21 10:34:52;;;;;;;6.30;5.68;;;15.00;99.90;;;;;;5053444;28;20415;-75
2021/09/21 10:37:22;;;;;;;5.95;5.45;;;15.10;99.90;;;;;;5064246;28;20095;-75
2021/09/21 10:39:59;;;;;;;6.65;6.05;;;15.30;99.90;;;;;;5069358;28;20039;-75
2021/09/21 10:42:25;;;;;;;6.80;5.88;;;15.50;99.90;;;;;;5065030;28;20024;-76
2021/09/21 10:44:53;;;;;;;6.28;5.68;;;15.40;99.90;;;;;;5054243;28;20048;-75
2021/09/21 10:47:24;;;;;;;8.80;6.63;;;15.30;99.90;;;;;;5065813;28;20024;-74
2021/09/21 10:49:50;;;;;;;7.20;5.85;;;15.70;99.90;;;;;;5071995;28;20020;-75
2021/09/21 10:52:19;;;;;;;7.07;6.25;;;15.80;99.90;;;;;;5059122;28;20021;-75
2021/09/21 10:54:56;;;;;;;6.55;5.95;;;15.30;99.90;;;;;;5065206;28;20021;-74
2021/09/21 10:57:31;;;;;;;6.47;5.97;;;15.20;99.90;;;;;;5067368;28;20032;-75
2021/09/21 11:00:00;;;;;;;7.13;5.97;;;15.70;99.90;;;;;;5062750;28;20029;-75
2021/09/21 11:02:31;;;;;;;6.43;5.82;;;16.00;99.90;;;;;;5066114;28;20039;-75
2021/09/21 11:04:57;;;;;;;7.97;5.97;;;16.10;99.90;;;;;;5051570;28;20439;-75
2021/09/21 11:07:23;;;;;;;6.25;5.72;;;16.40;99.90;;;;;;5066156;28;20036;-75
2021/09/21 11:09:52;;;;;;;6.55;5.90;;;16.30;99.90;;;;;;5063902;28;20025;-75
2021/09/21 11:12:22;;;;;;;7.03;5.90;;;16.70;99.90;;;;;;5054553;28;20067;-74
2021/09/21 11:14:47;;;;;;;8.27;6.18;;;16.20;99.90;;;;;;5064599;28;20012;-75
2021/09/21 11:17:13;;;;;;;8.13;5.78;;;16.10;99.90;;;;;;5054015;28;20036;-74
2021/09/21 11:19:40;;;;;;;6.40;5.75;;;16.90;99.90;;;;;;5063203;28;20127;-75
2021/09/21 11:22:08;;;;;;;6.40;5.80;;;17.10;99.90;;;;;;5066917;28;20032;-75
2021/09/21 11:24:36;;;;;;;6.75;6.15;;;17.20;99.90;;;;;;5064911;28;20033;-75
2021/09/21 11:27:04;;;;;;;7.07;6.35;;;17.30;99.90;;;;;;5066394;28;20116;-74
2021/09/21 11:29:31;;;;;;;6.88;5.30;;;16.70;99.90;;;;;;5065363;28;20032;-75
2021/09/21 11:31:57;;;;;;;6.60;5.90;;;16.60;99.90;;;;;;5052416;28;20017;-75
2021/09/21 11:34:29;;;;;;;6.15;5.55;;;16.40;99.90;;;;;;5052365;28;20522;-75
2021/09/21 11:37:02;;;;;;;6.68;5.47;;;16.20;99.90;;;;;;5052241;28;20033;-75
2021/09/21 11:39:31;;;;;;;6.63;5.97;;;15.90;99.90;;;;;;5051066;28;20506;-74
2021/09/21 11:41:57;;;;;;;5.72;5.22;;;15.90;99.90;;;;;;5052098;28;20029;-75
2021/09/21 11:44:23;;;;;;;6.70;5.50;;;16.20;99.90;;;;;;5065664;28;20036;-75
2021/09/21 11:46:58;;;;;;;6.80;5.70;;;16.00;99.90;;;;;;5060383;28;20037;-75
2021/09/21 11:49:25;;;;;;;5.93;5.43;;;16.00;99.90;;;;;;5059812;28;20036;-75
2021/09/21 11:51:51;;;;;;;6.28;5.68;;;16.10;99.90;;;;;;5060786;28;20031;-75
2021/09/21 11:54:18;;;;;;;5.88;5.35;;;16.30;99.90;;;;;;5064570;28;20033;-75
2021/09/21 11:56:44;;;;;;;11.48;6.50;;;15.70;99.90;;;;;;5061215;28;20044;-75
2021/09/21 11:59:09;;;;;;;8.13;5.50;;;15.60;99.90;;;;;;5054237;28;20056;-75
2021/09/21 12:01:35;;;;;;;6.07;5.47;;;15.70;99.90;;;;;;5062668;28;20046;-74
2021/09/21 12:04:00;;;;;;;6.10;5.50;;;15.40;99.90;;;;;;5054248;28;20480;-74
2021/09/21 12:06:34;;;;;;;6.65;5.55;;;15.60;99.90;;;;;;5061563;28;20021;-76
2021/09/21 12:09:02;;;;;;;6.72;5.68;;;15.70;99.90;;;;;;5053662;28;20421;-77
2021/09/21 12:11:28;;;;;;;8.07;7.28;;;16.20;99.90;;;;;;5064128;28;20138;-75
2021/09/21 12:13:58;;;;;;;7.07;6.47;;;17.00;99.90;;;;;;5051570;28;20535;-76
2021/09/21 12:16:27;;;;;;;8.15;5.93;;;18.00;99.90;;;;;;5063027;28;20082;-75
2021/09/21 12:18:53;;;;;;;6.28;5.35;;;18.40;99.90;;;;;;5058897;28;20039;-76
2021/09/21 12:21:18;;;;;;;6.30;5.70;;;19.20;99.70;;;;;;5059553;28;20033;-76
2021/09/21 12:23:46;;;;;;;6.43;5.57;;;19.70;99.20;;;;;;5051889;28;20047;-76
2021/09/21 12:26:15;;;;;;;6.10;5.50;;;20.10;98.40;;;;;;5051903;28;20032;-76
2021/09/21 12:28:44;;;;;;;6.10;5.60;;;20.50;97.70;;;;;;5058637;28;20027;-76
2021/09/21 12:31:23;;;;;;;6.20;5.60;;;20.70;97.00;;;;;;5069849;28;20028;-76
2021/09/21 12:33:51;;;;;;;6.90;5.90;;;21.20;96.30;;;;;;5051552;28;20061;-76
2021/09/21 12:36:31;;;;;;;6.07;5.47;;;20.20;96.60;;;;;;5051519;28;20521;-76
2021/09/21 12:39:04;;;;;;;6.30;5.55;;;20.10;96.40;;;;;;5051677;28;20503;-75
2021/09/21 12:41:33;;;;;;;6.43;5.82;;;20.30;95.20;;;;;;5064548;28;20108;-76
2021/09/21 12:44:00;;;;;;;6.38;5.88;;;19.30;96.80;;;;;;5062641;28;20025;-76
2021/09/21 12:46:29;;;;;;;6.35;5.78;;;20.10;95.60;;;;;;5057954;28;20028;-76
2021/09/21 12:48:56;;;;;;;6.22;5.65;;;20.70;96.10;;;;;;5058538;28;20021;-75
2021/09/21 12:51:36;;;;;;;6.88;6.18;;;20.30;95.90;;;;;;5069939;28;20024;-75
2021/09/21 12:54:04;;;;;;;6.80;6.20;;;19.90;95.80;;;;;;5055790;28;20123;-76
2021/09/21 12:56:31;;;;;;;7.15;6.45;;;20.90;95.70;;;;;;5058592;28;20116;-76
2021/09/21 12:59:12;;;;;;;7.30;6.03;;;21.40;94.50;;;;;;5071418;28;20054;-76
2021/09/21 13:01:43;;;;;;;7.72;6.15;;;21.20;93.20;;;;;;5060060;28;20021;-76